createdAt,value
2018-12-12T00:00:21.501Z,-1.00
2018-12-12T00:02:50.153Z,-1.10
2018-12-12T00:05:18.520Z,-1.10
2018-12-12T00:07:47.735Z,-1.20
2018-12-12T00:10:19.293Z,-1.20
2018-12-12T00:12:48.932Z,-1.30
2018-12-12T00:15:18.210Z,-1.30
2018-12-12T00:17:46.760Z,-1.30
2018-12-12T00:20:15.119Z,-1.20
2018-12-12T00:22:44.474Z,-1.10
2018-12-12T00:25:12.848Z,-0.90
2018-12-12T00:27:41.232Z,-0.80
2018-12-12T00:30:09.580Z,-0.80
2018-12-12T00:32:37.911Z,-0.70
2018-12-12T00:35:06.315Z,-0.70
2018-12-12T00:37:34.653Z,-0.80
2018-12-12T00:40:03.234Z,-0.90
2018-12-12T00:42:31.657Z,-0.90
2018-12-12T00:44:59.989Z,-0.90
2018-12-12T00:47:28.406Z,-0.90
2018-12-12T00:49:56.746Z,-0.90
2018-12-12T00:52:25.158Z,-1.00
2018-12-12T00:54:53.733Z,-1.00
2018-12-12T00:57:22.697Z,-1.10
2018-12-12T00:59:51.187Z,-1.10
2018-12-12T01:02:19.549Z,-1.20
2018-12-12T01:04:47.978Z,-1.30
2018-12-12T01:07:16.438Z,-1.30
2018-12-12T01:09:44.798Z,-1.30
2018-12-12T01:12:14.013Z,-1.30
2018-12-12T01:14:42.313Z,-1.30
2018-12-12T01:17:10.603Z,-1.30
2018-12-12T01:19:38.916Z,-1.30
2018-12-12T01:22:07.240Z,-1.30
2018-12-12T01:24:35.632Z,-1.30
2018-12-12T01:27:04.102Z,-1.40
2018-12-12T01:29:32.485Z,-1.40
2018-12-12T01:32:01.059Z,-1.40
2018-12-12T01:34:29.347Z,-1.40
2018-12-12T01:36:57.979Z,-1.50
2018-12-12T01:39:26.272Z,-1.50
2018-12-12T01:41:54.627Z,-1.60
2018-12-12T01:44:23.036Z,-1.60
2018-12-12T01:46:51.530Z,-1.60
2018-12-12T01:49:19.865Z,-1.60
2018-12-12T01:51:48.308Z,-1.70
2018-12-12T01:54:17.585Z,-1.70
2018-12-12T01:56:45.975Z,-1.80
2018-12-12T01:59:14.332Z,-1.80
2018-12-12T02:01:43.372Z,-1.90
2018-12-12T02:04:11.694Z,-1.90
2018-12-12T02:06:40.065Z,-1.90
2018-12-12T02:09:08.475Z,-1.90
2018-12-12T02:11:36.870Z,-2.00
2018-12-12T02:14:05.187Z,-2.00
2018-12-12T02:16:33.614Z,-2.00
2018-12-12T02:19:02.060Z,-1.90
2018-12-12T02:21:30.452Z,-1.90
2018-12-12T02:23:58.815Z,-1.90
2018-12-12T02:26:27.132Z,-1.90
2018-12-12T02:28:55.435Z,-1.80
2018-12-12T02:31:23.813Z,-1.80
2018-12-12T02:33:52.155Z,-1.80
2018-12-12T02:36:20.491Z,-1.80
2018-12-12T02:38:48.951Z,-1.80
2018-12-12T02:41:17.308Z,-1.80
2018-12-12T02:43:45.622Z,-1.80
2018-12-12T02:46:13.978Z,-1.90
2018-12-12T02:48:42.330Z,-1.90
2018-12-12T02:51:10.655Z,-1.90
2018-12-12T02:53:39.709Z,-1.80
2018-12-12T02:56:08.095Z,-1.80
2018-12-12T02:58:36.439Z,-1.80
2018-12-12T03:01:04.822Z,-1.90
2018-12-12T03:03:33.144Z,-1.90
2018-12-12T03:06:01.653Z,-1.80
2018-12-12T03:08:30.058Z,-1.80
2018-12-12T03:10:58.510Z,-1.90
2018-12-12T03:13:26.840Z,-1.90
2018-12-12T03:15:55.288Z,-2.00
2018-12-12T03:18:23.630Z,-2.10
2018-12-12T03:20:52.042Z,-2.20
2018-12-12T03:23:20.392Z,-2.20
2018-12-12T03:25:48.762Z,-2.30
2018-12-12T03:28:17.227Z,-2.30
2018-12-12T03:30:45.602Z,-2.30
2018-12-12T03:33:14.041Z,-2.20
2018-12-12T03:35:42.477Z,-2.10
2018-12-12T03:38:10.868Z,-2.10
2018-12-12T03:40:39.286Z,-2.10
2018-12-12T03:43:07.720Z,-2.20
2018-12-12T03:45:36.025Z,-2.30
2018-12-12T03:48:04.431Z,-2.30
2018-12-12T03:50:32.772Z,-2.30
2018-12-12T03:53:01.228Z,-2.40
2018-12-12T03:55:29.575Z,-2.40
2018-12-12T03:57:57.939Z,-2.50
2018-12-12T04:00:26.355Z,-2.50
2018-12-12T04:02:54.737Z,-2.50
2018-12-12T04:05:23.188Z,-2.50
2018-12-12T04:07:51.471Z,-2.30
2018-12-12T04:10:19.801Z,-2.10
2018-12-12T04:12:48.231Z,-2.00
2018-12-12T04:15:16.614Z,-1.90
2018-12-12T04:17:44.931Z,-1.80
2018-12-12T04:20:13.283Z,-1.70
2018-12-12T04:22:41.637Z,-1.60
2018-12-12T04:25:10.437Z,-1.60
2018-12-12T04:27:38.788Z,-1.60
2018-12-12T04:30:07.310Z,-1.50
2018-12-12T04:32:35.636Z,-1.60
2018-12-12T04:35:04.072Z,-1.50
2018-12-12T04:37:32.375Z,-1.60
2018-12-12T04:40:01.895Z,-1.70
2018-12-12T04:42:30.278Z,-1.80
2018-12-12T04:44:58.693Z,-2.00
2018-12-12T04:47:27.018Z,-2.00
2018-12-12T04:49:55.324Z,-2.00
2018-12-12T04:52:23.765Z,-2.10
2018-12-12T04:54:52.094Z,-2.10
2018-12-12T04:57:20.604Z,-2.10
2018-12-12T04:59:48.914Z,-2.10
2018-12-12T05:02:19.223Z,-2.00
2018-12-12T05:04:47.982Z,-2.10
2018-12-12T05:07:16.313Z,-2.10
2018-12-12T05:09:44.700Z,-2.10
2018-12-12T05:12:14.070Z,-2.10
2018-12-12T05:14:42.380Z,-2.20
2018-12-12T05:17:10.722Z,-2.10
2018-12-12T05:19:39.121Z,-2.10
2018-12-12T05:22:07.469Z,-2.00
2018-12-12T05:24:36.270Z,-1.80
2018-12-12T05:27:04.611Z,-1.70
2018-12-12T05:29:33.024Z,-1.60
2018-12-12T05:32:01.354Z,-1.50
2018-12-12T05:34:29.702Z,-1.40
2018-12-12T05:36:58.678Z,-1.30
2018-12-12T05:39:28.010Z,-1.20
2018-12-12T05:41:56.540Z,-1.20
2018-12-12T05:44:25.027Z,-1.20
2018-12-12T05:46:53.401Z,-1.30
2018-12-12T05:49:21.976Z,-1.20
2018-12-12T05:51:50.692Z,-1.20
2018-12-12T05:54:19.180Z,-1.20
2018-12-12T05:59:45.244Z,-1.20
2018-12-12T06:02:14.310Z,-1.20
2018-12-12T06:04:42.699Z,-1.20
2018-12-12T06:07:10.985Z,-1.30
2018-12-12T06:09:39.329Z,-1.30
2018-12-12T06:12:07.694Z,-1.40
2018-12-12T06:14:36.040Z,-1.50
2018-12-12T06:17:04.448Z,-1.50
2018-12-12T06:19:32.879Z,-1.60
2018-12-12T06:22:01.387Z,-1.50
2018-12-12T06:24:29.869Z,-1.60
2018-12-12T06:26:58.205Z,-1.60
2018-12-12T06:29:26.704Z,-1.70
2018-12-12T06:31:55.180Z,-1.70
2018-12-12T06:34:23.616Z,-1.80
2018-12-12T06:36:51.944Z,-1.80
2018-12-12T06:39:20.284Z,-1.90
2018-12-12T06:41:48.692Z,-1.90
2018-12-12T06:44:17.009Z,-2.00
2018-12-12T06:46:45.457Z,-2.00
2018-12-12T06:49:14.083Z,-2.00
2018-12-12T06:51:43.006Z,-2.00
2018-12-12T06:54:11.355Z,-2.00
2018-12-12T06:56:39.830Z,-2.10
2018-12-12T06:59:08.192Z,-2.00
2018-12-12T07:01:36.869Z,-2.00
2018-12-12T07:04:05.280Z,-2.00
2018-12-12T07:06:33.589Z,-1.90
2018-12-12T07:09:02.001Z,-2.00
2018-12-12T07:11:30.345Z,-2.00
2018-12-12T07:13:59.344Z,-2.10
2018-12-12T07:16:27.758Z,-2.10
2018-12-12T07:18:56.080Z,-2.00
2018-12-12T07:21:24.544Z,-2.00
2018-12-12T07:23:53.049Z,-2.00
2018-12-12T07:26:21.388Z,-1.80
2018-12-12T07:28:49.739Z,-1.90
2018-12-12T07:31:18.163Z,-1.80
2018-12-12T07:33:46.482Z,-1.70
2018-12-12T07:36:14.958Z,-1.60
2018-12-12T07:41:49.046Z,-1.50
2018-12-12T07:44:17.493Z,-1.40
2018-12-12T07:46:46.119Z,-1.40
2018-12-12T07:49:14.772Z,-1.30
2018-12-12T07:51:43.138Z,-1.20
2018-12-12T07:54:11.536Z,-1.10
2018-12-12T07:56:40.004Z,-1.10
2018-12-12T07:59:08.314Z,-1.00
2018-12-12T08:01:36.758Z,-0.90
2018-12-12T08:04:05.117Z,-0.80
2018-12-12T08:06:33.461Z,-0.70
2018-12-12T08:09:01.835Z,-0.60
2018-12-12T08:11:30.181Z,-0.60
2018-12-12T08:13:58.500Z,-0.60
2018-12-12T08:16:26.898Z,-0.50
2018-12-12T08:18:55.284Z,-0.40
2018-12-12T08:21:23.849Z,-0.30
2018-12-12T08:23:52.175Z,-0.30
2018-12-12T08:26:20.717Z,-0.30
2018-12-12T08:28:49.134Z,-0.30
2018-12-12T08:31:17.455Z,-0.30
2018-12-12T08:33:45.896Z,-0.30
2018-12-12T08:36:14.206Z,-0.30
2018-12-12T08:38:42.542Z,-0.40
2018-12-12T08:41:11.015Z,-0.40
2018-12-12T08:43:39.449Z,-0.30
2018-12-12T08:46:07.877Z,-0.30
2018-12-12T08:48:36.327Z,-0.30
2018-12-12T08:51:04.905Z,-0.30
2018-12-12T08:53:33.316Z,-0.30
2018-12-12T08:56:02.919Z,-0.20
2018-12-12T08:58:31.452Z,-0.20
2018-12-12T09:00:59.802Z,-0.20
2018-12-12T09:03:28.175Z,-0.20
2018-12-12T09:05:57.321Z,-0.20
2018-12-12T09:08:25.977Z,-0.10
2018-12-12T09:10:54.306Z,-0.10
2018-12-12T09:13:22.648Z,0.00
2018-12-12T09:15:51.082Z,0.00
2018-12-12T09:18:19.462Z,0.10
2018-12-12T09:20:47.862Z,0.10
2018-12-12T09:23:16.159Z,0.10
2018-12-12T09:25:44.496Z,0.10
2018-12-12T09:28:12.841Z,0.10
2018-12-12T09:30:41.738Z,0.20
2018-12-12T09:33:10.107Z,0.30
2018-12-12T09:35:38.531Z,0.30
2018-12-12T09:38:06.898Z,0.40
2018-12-12T09:40:35.600Z,0.40
2018-12-12T09:43:04.072Z,0.40
2018-12-12T09:45:33.349Z,0.50
2018-12-12T09:48:01.654Z,0.60
2018-12-12T09:50:30.235Z,0.50
2018-12-12T09:52:58.639Z,0.40
2018-12-12T09:55:27.101Z,0.30
2018-12-12T09:57:55.409Z,0.30
2018-12-12T10:00:23.790Z,0.40
2018-12-12T10:02:52.150Z,0.40
2018-12-12T10:05:20.573Z,0.50
2018-12-12T10:07:49.836Z,0.40
2018-12-12T10:10:18.131Z,0.40
2018-12-12T10:12:46.592Z,0.40
2018-12-12T10:15:14.932Z,0.60
2018-12-12T10:17:43.264Z,0.60
2018-12-12T10:20:11.576Z,0.70
2018-12-12T10:22:41.059Z,0.80
2018-12-12T10:25:09.827Z,0.80
2018-12-12T10:27:38.170Z,0.70
2018-12-12T10:30:06.469Z,0.70
2018-12-12T10:32:34.865Z,0.90
2018-12-12T10:35:04.863Z,0.90
2018-12-12T10:37:33.183Z,1.00
2018-12-12T10:40:01.488Z,1.10
2018-12-12T10:42:29.839Z,1.10
2018-12-12T10:44:58.152Z,1.20
2018-12-12T10:47:27.245Z,1.30
2018-12-12T10:49:55.615Z,1.20
2018-12-12T10:52:23.939Z,1.30
2018-12-12T10:54:52.923Z,1.30
2018-12-12T10:57:21.321Z,1.40
2018-12-12T10:59:49.997Z,1.50
2018-12-12T11:02:24.270Z,1.40
2018-12-12T11:04:52.638Z,1.30
2018-12-12T11:07:21.965Z,1.30
2018-12-12T11:09:50.383Z,1.40
2018-12-12T11:12:19.602Z,1.40
2018-12-12T11:14:47.933Z,1.40
2018-12-12T11:17:16.371Z,1.40
2018-12-12T11:19:44.684Z,1.40
2018-12-12T11:22:13.130Z,1.30
2018-12-12T11:24:41.463Z,1.30
2018-12-12T11:27:09.881Z,1.20
2018-12-12T11:29:38.285Z,1.20
2018-12-12T11:32:06.817Z,1.30
2018-12-12T11:34:35.461Z,1.20
2018-12-12T11:37:03.929Z,1.20
2018-12-12T11:39:32.420Z,1.20
2018-12-12T11:42:00.858Z,1.20
2018-12-12T11:44:29.262Z,1.30
2018-12-12T11:46:58.072Z,1.20
2018-12-12T11:49:26.489Z,1.10
2018-12-12T11:51:56.057Z,1.10
2018-12-12T11:54:24.457Z,1.10
2018-12-12T11:56:53.757Z,1.10
2018-12-12T11:59:22.204Z,1.00
2018-12-12T12:01:50.836Z,1.00
2018-12-12T12:04:19.196Z,1.00
2018-12-12T12:06:48.493Z,0.90
2018-12-12T12:09:17.018Z,0.90
2018-12-12T12:11:45.377Z,0.90
2018-12-12T12:14:13.673Z,1.00
2018-12-12T12:16:42.041Z,1.00
2018-12-12T12:19:11.024Z,1.10
2018-12-12T12:21:39.966Z,1.30
2018-12-12T12:24:08.349Z,1.30
2018-12-12T12:26:36.860Z,1.20
2018-12-12T12:29:05.744Z,1.30
2018-12-12T12:31:34.145Z,1.30
2018-12-12T12:34:03.352Z,1.20
2018-12-12T12:36:31.823Z,1.20
2018-12-12T12:39:00.136Z,1.20
2018-12-12T12:41:29.266Z,1.10
2018-12-12T12:43:57.572Z,1.20
2018-12-12T12:46:27.492Z,1.20
2018-12-12T12:48:55.799Z,1.20
2018-12-12T12:51:24.149Z,1.20
2018-12-12T12:53:52.427Z,1.30
2018-12-12T12:56:20.915Z,1.20
2018-12-12T13:00:15.775Z,1.30
2018-12-12T13:02:44.750Z,1.40
2018-12-12T13:05:13.142Z,1.40
2018-12-12T13:07:41.460Z,1.50
2018-12-12T13:10:11.693Z,1.50
2018-12-12T13:12:40.189Z,1.40
2018-12-12T13:15:08.527Z,1.60
2018-12-12T13:17:36.913Z,1.50
2018-12-12T13:20:06.111Z,1.50
2018-12-12T13:22:34.476Z,1.60
2018-12-12T13:25:02.953Z,1.60
2018-12-12T13:27:31.457Z,1.60
2018-12-12T13:30:00.105Z,1.50
2018-12-12T13:32:28.483Z,1.50
2018-12-12T13:34:56.979Z,1.60
2018-12-12T13:37:25.306Z,1.60
2018-12-12T13:39:53.607Z,1.60
2018-12-12T13:42:22.041Z,1.70
2018-12-12T13:44:50.377Z,1.60
2018-12-12T13:47:18.745Z,1.50
2018-12-12T13:49:47.134Z,1.40
2018-12-12T13:52:16.546Z,1.40
2018-12-12T13:54:44.914Z,1.30
2018-12-12T13:57:13.960Z,1.30
2018-12-12T13:59:42.369Z,1.30
2018-12-12T14:02:11.638Z,1.40
2018-12-12T14:04:39.950Z,1.40
2018-12-12T14:07:08.425Z,1.30
2018-12-12T14:09:36.740Z,1.30
2018-12-12T14:12:05.068Z,1.30
2018-12-12T14:14:33.603Z,1.30
2018-12-12T14:17:02.948Z,1.40
2018-12-12T14:19:31.347Z,1.30
2018-12-12T14:21:59.778Z,1.30
2018-12-12T14:24:28.137Z,1.30
2018-12-12T14:26:56.423Z,1.30
2018-12-12T14:29:24.778Z,1.30
2018-12-12T14:31:53.213Z,1.20
2018-12-12T14:34:21.608Z,1.20
2018-12-12T14:36:50.047Z,1.20
2018-12-12T14:39:18.398Z,1.20
2018-12-12T14:41:46.821Z,1.30
2018-12-12T14:44:15.155Z,1.30
2018-12-12T14:46:43.465Z,1.40
2018-12-12T14:49:11.986Z,1.50
2018-12-12T14:51:40.331Z,1.60
2018-12-12T14:54:08.686Z,1.70
2018-12-12T14:56:37.069Z,1.80
2018-12-12T14:59:08.179Z,1.90
2018-12-12T15:04:36.066Z,2.00
2018-12-12T15:07:03.860Z,2.00
2018-12-12T15:09:32.168Z,2.00
2018-12-12T15:12:00.524Z,2.00
2018-12-12T15:14:28.821Z,2.00
2018-12-12T15:16:58.036Z,2.00
2018-12-12T15:19:26.342Z,1.90
2018-12-12T15:21:54.654Z,1.80
2018-12-12T15:24:23.051Z,1.80
2018-12-12T15:26:51.409Z,1.80
2018-12-12T15:29:19.723Z,1.80
2018-12-12T15:31:48.044Z,1.80
2018-12-12T15:34:16.443Z,1.70
2018-12-12T15:36:44.843Z,1.80
2018-12-12T15:39:13.186Z,1.80
2018-12-12T15:41:41.599Z,1.70
2018-12-12T15:44:09.901Z,1.70
2018-12-12T15:46:38.245Z,1.70
2018-12-12T15:49:06.599Z,1.70
2018-12-12T15:51:34.925Z,1.70
2018-12-12T15:54:03.380Z,1.70
2018-12-12T15:56:31.694Z,1.60
2018-12-12T15:59:00.097Z,1.70
2018-12-12T16:01:28.471Z,1.60
2018-12-12T16:03:56.833Z,1.70
2018-12-12T16:06:25.285Z,1.60
2018-12-12T16:08:53.651Z,1.60
2018-12-12T16:11:22.056Z,1.50
2018-12-12T16:13:50.414Z,1.60
2018-12-12T16:16:18.832Z,1.60
2018-12-12T16:18:47.202Z,1.50
2018-12-12T16:21:15.586Z,1.50
2018-12-12T16:23:43.973Z,1.40
2018-12-12T16:26:12.309Z,1.40
2018-12-12T16:28:40.742Z,1.40
2018-12-12T16:31:09.058Z,1.40
2018-12-12T16:33:37.481Z,1.40
2018-12-12T16:36:05.856Z,1.40
2018-12-12T16:38:34.261Z,1.40
2018-12-12T16:41:02.559Z,1.50
2018-12-12T16:43:31.007Z,1.40
2018-12-12T16:45:59.483Z,1.50
2018-12-12T16:48:27.865Z,1.50
2018-12-12T16:50:56.193Z,1.40
2018-12-12T16:53:24.630Z,1.40
2018-12-12T16:55:52.950Z,1.40
2018-12-12T16:58:21.303Z,1.40
2018-12-12T17:00:51.409Z,1.30
2018-12-12T17:03:19.707Z,1.20
2018-12-12T17:05:48.122Z,1.20
2018-12-12T17:08:17.361Z,1.10
2018-12-12T17:10:45.657Z,1.10
2018-12-12T17:13:14.071Z,1.00
2018-12-12T17:15:42.440Z,1.00
2018-12-12T17:18:10.826Z,1.00
2018-12-12T17:20:39.147Z,1.10
2018-12-12T17:23:07.603Z,1.10
2018-12-12T17:25:36.421Z,1.10
2018-12-12T17:28:04.764Z,1.10
2018-12-12T17:30:33.091Z,1.10
2018-12-12T17:33:01.422Z,1.00
2018-12-12T17:35:30.710Z,1.00
2018-12-12T17:37:59.072Z,1.00
2018-12-12T17:40:28.015Z,0.90
2018-12-12T17:43:54.660Z,0.80
2018-12-12T17:46:23.003Z,0.80
2018-12-12T17:48:51.399Z,0.60
2018-12-12T17:51:20.432Z,0.70
2018-12-12T17:53:48.787Z,0.60
2018-12-12T17:56:17.100Z,0.50
2018-12-12T17:58:45.458Z,0.40
2018-12-12T18:01:13.999Z,0.40
2018-12-12T18:03:42.341Z,0.30
2018-12-12T18:06:10.739Z,0.30
2018-12-12T18:08:39.388Z,0.30
2018-12-12T18:11:07.700Z,0.30
2018-12-12T18:13:37.945Z,0.30
2018-12-12T18:16:06.840Z,0.30
2018-12-12T18:18:36.872Z,0.30
2018-12-12T18:21:05.175Z,0.40
2018-12-12T18:23:33.471Z,0.30
2018-12-12T18:26:01.890Z,0.20
2018-12-12T18:28:30.278Z,0.20
2018-12-12T18:30:58.800Z,0.20
2018-12-12T18:33:27.113Z,0.10
2018-12-12T18:35:55.520Z,0.20
2018-12-12T18:38:23.921Z,0.20
2018-12-12T18:40:53.045Z,0.10
2018-12-12T18:43:21.715Z,0.10
2018-12-12T18:45:50.006Z,0.10
2018-12-12T18:48:18.903Z,0.10
2018-12-12T18:50:47.250Z,0.10
2018-12-12T18:53:16.566Z,0.10
2018-12-12T18:55:44.896Z,0.10
2018-12-12T18:58:13.270Z,0.00
2018-12-12T19:00:41.693Z,0.00
2018-12-12T19:03:10.021Z,-0.10
2018-12-12T19:05:38.443Z,-0.30
2018-12-12T19:08:06.854Z,-0.40
2018-12-12T19:10:35.192Z,-0.50
2018-12-12T19:15:59.853Z,-0.80
2018-12-12T19:18:28.222Z,-0.90
2018-12-12T19:21:00.059Z,-1.00
2018-12-12T19:23:27.767Z,-1.00
2018-12-12T19:25:56.126Z,-1.10
2018-12-12T19:28:24.464Z,-1.10
2018-12-12T19:30:52.844Z,-1.20
2018-12-12T19:33:21.183Z,-1.20
2018-12-12T19:35:49.560Z,-1.30
2018-12-12T19:38:17.991Z,-1.30
2018-12-12T19:40:46.357Z,-1.30
2018-12-12T19:43:14.659Z,-1.40
2018-12-12T19:45:43.093Z,-1.40
2018-12-12T19:48:11.980Z,-1.40
2018-12-12T19:50:40.356Z,-1.40
2018-12-12T19:53:08.762Z,-1.40
2018-12-12T19:55:37.850Z,-1.40
2018-12-12T19:58:06.282Z,-1.40
2018-12-12T20:00:35.012Z,-1.30
2018-12-12T20:03:03.523Z,-1.30
2018-12-12T20:05:31.911Z,-1.30
2018-12-12T20:11:35.716Z,-1.10
2018-12-12T20:14:04.087Z,-1.00
2018-12-12T20:16:32.520Z,-0.80
2018-12-12T20:19:00.859Z,-0.70
2018-12-12T20:21:29.263Z,-0.60
2018-12-12T20:23:57.715Z,-0.60
2018-12-12T20:26:26.109Z,-0.50
2018-12-12T20:28:54.550Z,-0.40
2018-12-12T20:31:22.964Z,-0.40
2018-12-12T20:33:51.292Z,-0.40
2018-12-12T20:36:19.728Z,-0.40
2018-12-12T20:38:48.050Z,-0.40
2018-12-12T20:41:16.563Z,-0.40
2018-12-12T20:43:44.993Z,-0.30
2018-12-12T20:46:13.409Z,-0.30
2018-12-12T20:48:41.765Z,-0.20
2018-12-12T20:51:10.174Z,-0.20
2018-12-12T20:53:38.570Z,-0.10
2018-12-12T20:56:06.895Z,-0.10
2018-12-12T20:58:35.190Z,-0.10
2018-12-12T21:01:03.675Z,-0.10
2018-12-12T21:03:32.011Z,0.00
2018-12-12T21:06:00.369Z,0.00
2018-12-12T21:08:29.583Z,0.00
2018-12-12T21:10:57.944Z,0.00
2018-12-12T21:13:26.260Z,0.00
2018-12-12T21:15:54.670Z,0.10
2018-12-12T21:18:23.102Z,0.10
2018-12-12T21:20:51.423Z,0.00
2018-12-12T21:23:19.777Z,0.00
2018-12-12T21:25:48.645Z,0.10
2018-12-12T21:28:16.997Z,0.00
2018-12-12T21:33:42.644Z,-0.10
2018-12-12T21:36:11.905Z,-0.10
2018-12-12T21:38:40.270Z,-0.20
2018-12-12T21:41:08.615Z,-0.20
2018-12-12T21:43:37.051Z,-0.30
2018-12-12T21:46:05.391Z,-0.30
2018-12-12T21:48:33.749Z,-0.30
2018-12-12T21:51:02.105Z,-0.30
2018-12-12T21:53:30.530Z,-0.40
2018-12-12T21:55:58.919Z,-0.40
2018-12-12T21:58:27.252Z,-0.40
2018-12-12T22:00:55.670Z,-0.50
2018-12-12T22:03:23.995Z,-0.60
2018-12-12T22:05:52.377Z,-0.70
2018-12-12T22:08:20.759Z,-0.80
2018-12-12T22:10:49.071Z,-0.80
2018-12-12T22:13:17.475Z,-0.90
2018-12-12T22:15:45.870Z,-1.00
2018-12-12T22:18:14.249Z,-1.00
2018-12-12T22:20:42.646Z,-1.00
2018-12-12T22:23:10.969Z,-1.00
2018-12-12T22:25:39.817Z,-1.10
2018-12-12T22:28:08.237Z,-1.20
2018-12-12T22:30:36.669Z,-1.30
2018-12-12T22:33:05.693Z,-1.40
2018-12-12T22:35:34.121Z,-1.50
2018-12-12T22:38:02.436Z,-1.60
2018-12-12T22:40:30.770Z,-1.50
2018-12-12T22:42:59.114Z,-1.60
2018-12-12T22:45:27.403Z,-1.60
2018-12-12T22:47:55.735Z,-1.70
2018-12-12T22:50:24.291Z,-1.70
2018-12-12T22:52:52.717Z,-1.80
2018-12-12T22:55:21.136Z,-1.80
2018-12-12T22:57:49.989Z,-1.90
2018-12-12T23:00:24.329Z,-1.80
2018-12-12T23:02:52.691Z,-1.90
2018-12-12T23:05:21.047Z,-1.90
2018-12-12T23:07:49.486Z,-2.00
2018-12-12T23:10:17.948Z,-2.00
2018-12-12T23:12:46.308Z,-2.00
2018-12-12T23:15:16.601Z,-2.10
2018-12-12T23:17:45.028Z,-2.20
2018-12-12T23:20:13.399Z,-2.20
2018-12-12T23:22:41.773Z,-2.30
2018-12-12T23:25:10.103Z,-2.30
2018-12-12T23:27:39.373Z,-2.40
2018-12-12T23:30:09.026Z,-2.40
2018-12-12T23:32:37.460Z,-2.50
2018-12-12T23:35:06.566Z,-2.50
2018-12-12T23:37:35.896Z,-2.50
2018-12-12T23:40:05.768Z,-2.60
2018-12-12T23:42:35.025Z,-2.60
2018-12-12T23:45:03.905Z,-2.60
2018-12-12T23:47:32.222Z,-2.70
2018-12-12T23:50:00.691Z,-2.70
2018-12-12T23:52:28.998Z,-2.70
2018-12-12T23:54:57.387Z,-2.80
2018-12-12T23:57:25.792Z,-2.70
2018-12-12T23:59:54.129Z,-2.70
